sensor_id;sensor_type;location;lat;lon;timestamp;temperature;humidity
16136;DHT22;8173;48.354;9.248;2022-08-01T00:00:15;14.50;99.90
16136;DHT22;8173;48.354;9.248;2022-08-01T00:02:41;14.60;99.90
16136;DHT22;8173;48.354;9.248;2022-08-01T00:05:09;14.50;99.90
16136;DHT22;8173;48.354;9.248;2022-08-01T00:07:36;14.50;99.90
16136;DHT22;8173;48.354;9.248;2022-08-01T00:10:06;14.50;99.90
16136;DHT22;8173;48.354;9.248;2022-08-01T00:12:35;14.40;99.90
16136;DHT22;8173;48.354;9.248;2022-08-01T00:15:03;14.30;99.90
16136;DHT22;8173;48.354;9.248;2022-08-01T00:17:30;14.30;99.90
16136;DHT22;8173;48.354;9.248;2022-08-01T00:19:57;14.20;99.90
16136;DHT22;8173;48.354;9.248;2022-08-01T00:22:24;14.10;99.90
16136;DHT22;8173;48.354;9.248;2022-08-01T00:24:51;14.00;99.90
16136;DHT22;8173;48.354;9.248;2022-08-01T00:27:18;14.40;99.90
16136;DHT22;8173;48.354;9.248;2022-08-01T00:29:46;13.90;99.90
16136;DHT22;8173;48.354;9.248;2022-08-01T00:32:13;13.90;99.90
16136;DHT22;8173;48.354;9.248;2022-08-01T00:34:39;13.90;99.90
16136;DHT22;8173;48.354;9.248;2022-08-01T00:37:06;13.80;99.90
16136;DHT22;8173;48.354;9.248;2022-08-01T00:39:33;13.70;99.90
16136;DHT22;8173;48.354;9.248;2022-08-01T00:42:05;13.70;99.90
16136;DHT22;8173;48.354;9.248;2022-08-01T00:44:32;13.70;99.90
16136;DHT22;8173;48.354;9.248;2022-08-01T00:47:00;13.70;99.90
16136;DHT22;8173;48.354;9.248;2022-08-01T00:49:27;13.70;99.90
16136;DHT22;8173;48.354;9.248;2022-08-01T00:51:54;13.70;99.90
16136;DHT22;8173;48.354;9.248;2022-08-01T00:54:21;13.70;99.90
16136;DHT22;8173;48.354;9.248;2022-08-01T00:56:48;13.70;99.90
16136;DHT22;8173;48.354;9.248;2022-08-01T00:59:17;13.70;99.90
16136;DHT22;8173;48.354;9.248;2022-08-01T01:01:44;13.80;99.90
16136;DHT22;8173;48.354;9.248;2022-08-01T01:04:12;13.90;99.90
16136;DHT22;8173;48.354;9.248;2022-08-01T01:06:44;13.90;99.90
16136;DHT22;8173;48.354;9.248;2022-08-01T01:09:28;13.90;99.90
16136;DHT22;8173;48.354;9.248;2022-08-01T01:12:02;13.90;99.90
16136;DHT22;8173;48.354;9.248;2022-08-01T01:14:38;13.80;99.90
16136;DHT22;8173;48.354;9.248;2022-08-01T01:17:11;13.80;99.90
16136;DHT22;8173;48.354;9.248;2022-08-01T01:19:45;13.80;99.90
16136;DHT22;8173;48.354;9.248;2022-08-01T01:22:26;13.70;99.90
16136;DHT22;8173;48.354;9.248;2022-08-01T01:25:17;13.60;99.90
16136;DHT22;8173;48.354;9.248;2022-08-01T01:27:51;13.50;99.90
16136;DHT22;8173;48.354;9.248;2022-08-01T01:30:28;13.40;99.90
16136;DHT22;8173;48.354;9.248;2022-08-01T01:32:59;13.30;99.90
16136;DHT22;8173;48.354;9.248;2022-08-01T01:35:35;13.40;99.90
16136;DHT22;8173;48.354;9.248;2022-08-01T01:38:07;13.20;99.90
16136;DHT22;8173;48.354;9.248;2022-08-01T01:40:36;13.20;99.90
16136;DHT22;8173;48.354;9.248;2022-08-01T01:43:03;13.20;99.90
16136;DHT22;8173;48.354;9.248;2022-08-01T01:45:32;13.20;99.90
16136;DHT22;8173;48.354;9.248;2022-08-01T01:48:01;13.10;99.90
16136;DHT22;8173;48.354;9.248;2022-08-01T01:50:28;13.20;99.90
16136;DHT22;8173;48.354;9.248;2022-08-01T01:52:56;13.30;99.90
16136;DHT22;8173;48.354;9.248;2022-08-01T01:55:25;13.40;99.90
16136;DHT22;8173;48.354;9.248;2022-08-01T01:57:53;13.40;99.90
16136;DHT22;8173;48.354;9.248;2022-08-01T02:00:22;13.40;99.90
16136;DHT22;8173;48.354;9.248;2022-08-01T02:02:52;13.40;99.90
16136;DHT22;8173;48.354;9.248;2022-08-01T02:05:20;13.40;99.90
16136;DHT22;8173;48.354;9.248;2022-08-01T02:07:49;13.40;99.90
16136;DHT22;8173;48.354;9.248;2022-08-01T02:10:18;13.30;99.90
16136;DHT22;8173;48.354;9.248;2022-08-01T02:12:46;13.20;99.90
16136;DHT22;8173;48.354;9.248;2022-08-01T02:15:15;13.00;99.90
16136;DHT22;8173;48.354;9.248;2022-08-01T02:17:46;13.00;99.90
16136;DHT22;8173;48.354;9.248;2022-08-01T02:20:16;12.80;99.90
16136;DHT22;8173;48.354;9.248;2022-08-01T02:22:46;12.70;99.90
16136;DHT22;8173;48.354;9.248;2022-08-01T02:25:20;12.70;99.90
16136;DHT22;8173;48.354;9.248;2022-08-01T02:27:54;12.60;99.90
16136;DHT22;8173;48.354;9.248;2022-08-01T02:30:24;12.60;99.90
16136;DHT22;8173;48.354;9.248;2022-08-01T02:32:58;12.60;99.90
16136;DHT22;8173;48.354;9.248;2022-08-01T02:35:30;12.80;99.90
16136;DHT22;8173;48.354;9.248;2022-08-01T02:38:00;12.90;99.90
16136;DHT22;8173;48.354;9.248;2022-08-01T02:40:31;13.00;99.90
16136;DHT22;8173;48.354;9.248;2022-08-01T02:43:00;13.00;99.90
16136;DHT22;8173;48.354;9.248;2022-08-01T02:45:28;13.00;99.90
16136;DHT22;8173;48.354;9.248;2022-08-01T02:47:59;13.00;99.90
16136;DHT22;8173;48.354;9.248;2022-08-01T02:50:30;13.00;99.90
16136;DHT22;8173;48.354;9.248;2022-08-01T02:53:00;13.00;99.90
16136;DHT22;8173;48.354;9.248;2022-08-01T02:55:29;13.10;99.90
16136;DHT22;8173;48.354;9.248;2022-08-01T02:57:58;13.00;99.90
16136;DHT22;8173;48.354;9.248;2022-08-01T03:00:25;13.00;99.90
16136;DHT22;8173;48.354;9.248;2022-08-01T03:02:53;13.00;99.90
16136;DHT22;8173;48.354;9.248;2022-08-01T03:05:21;13.00;99.90
16136;DHT22;8173;48.354;9.248;2022-08-01T03:07:51;13.00;99.90
16136;DHT22;8173;48.354;9.248;2022-08-01T03:10:19;13.00;99.90
16136;DHT22;8173;48.354;9.248;2022-08-01T03:12:47;13.00;99.90
16136;DHT22;8173;48.354;9.248;2022-08-01T03:15:16;12.90;99.90
16136;DHT22;8173;48.354;9.248;2022-08-01T03:17:45;12.70;99.90
16136;DHT22;8173;48.354;9.248;2022-08-01T03:20:14;12.40;99.90
16136;DHT22;8173;48.354;9.248;2022-08-01T03:22:43;12.20;99.90
16136;DHT22;8173;48.354;9.248;2022-08-01T03:25:14;12.10;99.90
16136;DHT22;8173;48.354;9.248;2022-08-01T03:27:43;12.00;99.90
16136;DHT22;8173;48.354;9.248;2022-08-01T03:30:13;11.90;99.90
16136;DHT22;8173;48.354;9.248;2022-08-01T03:32:41;11.80;99.90
16136;DHT22;8173;48.354;9.248;2022-08-01T03:35:08;11.80;99.90
16136;DHT22;8173;48.354;9.248;2022-08-01T03:37:38;11.90;99.90
16136;DHT22;8173;48.354;9.248;2022-08-01T03:40:09;11.90;99.90
16136;DHT22;8173;48.354;9.248;2022-08-01T03:42:44;12.00;99.90
16136;DHT22;8173;48.354;9.248;2022-08-01T03:45:15;12.00;99.90
16136;DHT22;8173;48.354;9.248;2022-08-01T03:47:47;11.90;99.90
16136;DHT22;8173;48.354;9.248;2022-08-01T03:50:15;11.80;99.90
16136;DHT22;8173;48.354;9.248;2022-08-01T03:52:45;11.80;99.90
16136;DHT22;8173;48.354;9.248;2022-08-01T03:55:15;11.80;99.90
16136;DHT22;8173;48.354;9.248;2022-08-01T03:57:45;11.70;99.90
16136;DHT22;8173;48.354;9.248;2022-08-01T04:00:13;11.70;99.90
16136;DHT22;8173;48.354;9.248;2022-08-01T04:02:45;11.70;99.90
16136;DHT22;8173;48.354;9.248;2022-08-01T04:07:39;11.70;99.90
16136;DHT22;8173;48.354;9.248;2022-08-01T04:10:08;11.70;99.90
16136;DHT22;8173;48.354;9.248;2022-08-01T04:12:35;11.60;99.90
16136;DHT22;8173;48.354;9.248;2022-08-01T04:15:04;11.50;99.90
16136;DHT22;8173;48.354;9.248;2022-08-01T04:17:31;11.40;99.90
16136;DHT22;8173;48.354;9.248;2022-08-01T04:19:58;11.50;99.90
16136;DHT22;8173;48.354;9.248;2022-08-01T04:22:25;11.60;99.90
16136;DHT22;8173;48.354;9.248;2022-08-01T04:24:55;11.70;99.90
16136;DHT22;8173;48.354;9.248;2022-08-01T04:27:27;11.90;99.90
16136;DHT22;8173;48.354;9.248;2022-08-01T04:29:57;11.90;99.90
16136;DHT22;8173;48.354;9.248;2022-08-01T04:32:29;12.00;99.90
16136;DHT22;8173;48.354;9.248;2022-08-01T04:34:59;12.10;99.90
16136;DHT22;8173;48.354;9.248;2022-08-01T04:37:28;12.10;99.90
16136;DHT22;8173;48.354;9.248;2022-08-01T04:39:56;12.10;99.90
16136;DHT22;8173;48.354;9.248;2022-08-01T04:42:24;12.10;99.90
16136;DHT22;8173;48.354;9.248;2022-08-01T04:44:51;12.20;99.90
16136;DHT22;8173;48.354;9.248;2022-08-01T04:47:18;12.20;99.90
16136;DHT22;8173;48.354;9.248;2022-08-01T04:49:47;12.30;99.90
16136;DHT22;8173;48.354;9.248;2022-08-01T04:52:14;12.50;99.90
16136;DHT22;8173;48.354;9.248;2022-08-01T04:54:43;12.70;99.90
16136;DHT22;8173;48.354;9.248;2022-08-01T04:57:12;12.80;99.90
16136;DHT22;8173;48.354;9.248;2022-08-01T04:59:43;13.10;99.90
16136;DHT22;8173;48.354;9.248;2022-08-01T05:02:11;13.60;99.90
16136;DHT22;8173;48.354;9.248;2022-08-01T05:04:39;14.10;99.90
16136;DHT22;8173;48.354;9.248;2022-08-01T05:07:07;14.10;99.90
16136;DHT22;8173;48.354;9.248;2022-08-01T05:09:35;14.00;99.90
16136;DHT22;8173;48.354;9.248;2022-08-01T05:12:04;14.10;99.90
16136;DHT22;8173;48.354;9.248;2022-08-01T05:14:32;14.30;99.90
16136;DHT22;8173;48.354;9.248;2022-08-01T05:16:59;14.40;99.90
16136;DHT22;8173;48.354;9.248;2022-08-01T05:19:28;14.70;99.90
16136;DHT22;8173;48.354;9.248;2022-08-01T05:21:55;15.60;99.90
16136;DHT22;8173;48.354;9.248;2022-08-01T05:24:23;17.50;99.90
16136;DHT22;8173;48.354;9.248;2022-08-01T05:26:50;17.40;99.90
16136;DHT22;8173;48.354;9.248;2022-08-01T05:29:17;18.10;99.90
16136;DHT22;8173;48.354;9.248;2022-08-01T05:31:44;18.90;99.90
16136;DHT22;8173;48.354;9.248;2022-08-01T05:34:10;19.90;99.90
16136;DHT22;8173;48.354;9.248;2022-08-01T05:36:37;20.60;99.90
16136;DHT22;8173;48.354;9.248;2022-08-01T05:39:04;20.50;99.90
16136;DHT22;8173;48.354;9.248;2022-08-01T05:41:32;20.10;99.90
16136;DHT22;8173;48.354;9.248;2022-08-01T05:43:59;19.50;99.90
16136;DHT22;8173;48.354;9.248;2022-08-01T05:46:26;19.00;99.90
16136;DHT22;8173;48.354;9.248;2022-08-01T05:48:53;18.90;99.90
16136;DHT22;8173;48.354;9.248;2022-08-01T05:51:20;18.90;99.90
16136;DHT22;8173;48.354;9.248;2022-08-01T05:53:46;19.20;99.90
16136;DHT22;8173;48.354;9.248;2022-08-01T05:56:13;20.10;99.90
16136;DHT22;8173;48.354;9.248;2022-08-01T05:58:41;20.70;99.90
16136;DHT22;8173;48.354;9.248;2022-08-01T06:01:08;20.50;99.90
16136;DHT22;8173;48.354;9.248;2022-08-01T06:03:35;19.90;99.90
16136;DHT22;8173;48.354;9.248;2022-08-01T06:06:02;19.40;99.90
16136;DHT22;8173;48.354;9.248;2022-08-01T06:08:29;19.40;99.90
16136;DHT22;8173;48.354;9.248;2022-08-01T06:10:56;19.80;99.90
16136;DHT22;8173;48.354;9.248;2022-08-01T06:13:23;19.90;99.90
16136;DHT22;8173;48.354;9.248;2022-08-01T06:15:51;19.80;99.90
16136;DHT22;8173;48.354;9.248;2022-08-01T06:18:19;19.80;99.90
16136;DHT22;8173;48.354;9.248;2022-08-01T06:20:46;20.40;99.90
16136;DHT22;8173;48.354;9.248;2022-08-01T06:23:14;21.70;99.90
16136;DHT22;8173;48.354;9.248;2022-08-01T06:25:41;22.90;99.90
16136;DHT22;8173;48.354;9.248;2022-08-01T06:28:08;23.90;99.90
16136;DHT22;8173;48.354;9.248;2022-08-01T06:30:35;24.20;99.90
16136;DHT22;8173;48.354;9.248;2022-08-01T06:33:03;24.50;99.90
16136;DHT22;8173;48.354;9.248;2022-08-01T06:35:30;24.30;99.90
16136;DHT22;8173;48.354;9.248;2022-08-01T06:37:57;24.20;99.90
16136;DHT22;8173;48.354;9.248;2022-08-01T06:40:24;24.20;99.90
16136;DHT22;8173;48.354;9.248;2022-08-01T06:42:51;24.80;99.90
16136;DHT22;8173;48.354;9.248;2022-08-01T06:45:17;25.40;99.90
16136;DHT22;8173;48.354;9.248;2022-08-01T06:47:48;26.40;99.90
16136;DHT22;8173;48.354;9.248;2022-08-01T06:50:16;26.90;99.90
16136;DHT22;8173;48.354;9.248;2022-08-01T06:52:43;27.10;99.90
16136;DHT22;8173;48.354;9.248;2022-08-01T06:55:10;27.30;99.90
16136;DHT22;8173;48.354;9.248;2022-08-01T06:57:39;27.40;99.80
16136;DHT22;8173;48.354;9.248;2022-08-01T07:00:12;27.40;99.30
16136;DHT22;8173;48.354;9.248;2022-08-01T07:02:39;27.60;99.20
16136;DHT22;8173;48.354;9.248;2022-08-01T07:05:07;28.00;96.80
16136;DHT22;8173;48.354;9.248;2022-08-01T07:07:36;28.00;96.60
16136;DHT22;8173;48.354;9.248;2022-08-01T07:10:03;28.30;97.10
16136;DHT22;8173;48.354;9.248;2022-08-01T07:12:29;28.70;94.90
16136;DHT22;8173;48.354;9.248;2022-08-01T07:14:58;28.40;94.90
16136;DHT22;8173;48.354;9.248;2022-08-01T07:17:24;28.50;95.00
16136;DHT22;8173;48.354;9.248;2022-08-01T07:19:51;29.10;94.10
16136;DHT22;8173;48.354;9.248;2022-08-01T07:22:19;28.60;93.90
16136;DHT22;8173;48.354;9.248;2022-08-01T07:24:48;28.50;94.10
16136;DHT22;8173;48.354;9.248;2022-08-01T07:27:14;28.50;94.40
16136;DHT22;8173;48.354;9.248;2022-08-01T07:29:42;28.50;93.70
16136;DHT22;8173;48.354;9.248;2022-08-01T07:32:09;28.20;93.20
16136;DHT22;8173;48.354;9.248;2022-08-01T07:34:35;27.00;95.00
16136;DHT22;8173;48.354;9.248;2022-08-01T07:37:02;26.90;95.30
16136;DHT22;8173;48.354;9.248;2022-08-01T07:39:29;27.00;96.00
16136;DHT22;8173;48.354;9.248;2022-08-01T07:41:57;27.30;95.90
16136;DHT22;8173;48.354;9.248;2022-08-01T07:44:24;26.80;95.60
16136;DHT22;8173;48.354;9.248;2022-08-01T07:46:51;26.70;95.90
16136;DHT22;8173;48.354;9.248;2022-08-01T07:49:18;26.90;96.00
16136;DHT22;8173;48.354;9.248;2022-08-01T07:51:44;27.20;95.70
16136;DHT22;8173;48.354;9.248;2022-08-01T07:54:11;27.40;95.50
16136;DHT22;8173;48.354;9.248;2022-08-01T07:56:38;27.90;95.30
16136;DHT22;8173;48.354;9.248;2022-08-01T07:59:06;28.50;93.40
16136;DHT22;8173;48.354;9.248;2022-08-01T08:01:33;27.90;94.00
16136;DHT22;8173;48.354;9.248;2022-08-01T08:03:59;27.50;95.20
16136;DHT22;8173;48.354;9.248;2022-08-01T08:06:26;27.90;94.00
16136;DHT22;8173;48.354;9.248;2022-08-01T08:08:53;28.10;94.10
16136;DHT22;8173;48.354;9.248;2022-08-01T08:11:20;28.40;93.70
16136;DHT22;8173;48.354;9.248;2022-08-01T08:13:46;28.20;93.30
16136;DHT22;8173;48.354;9.248;2022-08-01T08:16:15;28.00;92.30
16136;DHT22;8173;48.354;9.248;2022-08-01T08:18:41;27.90;93.20
16136;DHT22;8173;48.354;9.248;2022-08-01T08:21:08;28.00;93.90
16136;DHT22;8173;48.354;9.248;2022-08-01T08:23:35;28.70;93.90
16136;DHT22;8173;48.354;9.248;2022-08-01T08:26:19;29.00;91.90
16136;DHT22;8173;48.354;9.248;2022-08-01T08:28:46;28.80;91.90
16136;DHT22;8173;48.354;9.248;2022-08-01T08:31:12;28.20;92.30
16136;DHT22;8173;48.354;9.248;2022-08-01T08:33:41;27.70;92.40
16136;DHT22;8173;48.354;9.248;2022-08-01T08:36:07;26.50;92.40
16136;DHT22;8173;48.354;9.248;2022-08-01T08:38:35;25.20;95.40
16136;DHT22;8173;48.354;9.248;2022-08-01T08:41:02;24.30;98.40
16136;DHT22;8173;48.354;9.248;2022-08-01T08:43:29;25.10;99.10
16136;DHT22;8173;48.354;9.248;2022-08-01T08:45:56;25.30;98.30
16136;DHT22;8173;48.354;9.248;2022-08-01T08:48:23;25.60;98.60
16136;DHT22;8173;48.354;9.248;2022-08-01T08:50:53;25.60;97.60
16136;DHT22;8173;48.354;9.248;2022-08-01T08:53:20;25.80;97.20
16136;DHT22;8173;48.354;9.248;2022-08-01T08:55:47;26.50;98.50
16136;DHT22;8173;48.354;9.248;2022-08-01T08:58:15;26.90;97.00
16136;DHT22;8173;48.354;9.248;2022-08-01T09:00:44;26.90;96.40
16136;DHT22;8173;48.354;9.248;2022-08-01T09:03:12;27.00;95.80
16136;DHT22;8173;48.354;9.248;2022-08-01T09:05:38;27.50;94.80
16136;DHT22;8173;48.354;9.248;2022-08-01T09:08:08;27.10;94.60
16136;DHT22;8173;48.354;9.248;2022-08-01T09:10:35;26.60;95.60
16136;DHT22;8173;48.354;9.248;2022-08-01T09:13:06;26.50;96.30
16136;DHT22;8173;48.354;9.248;2022-08-01T09:15:43;25.30;96.90
16136;DHT22;8173;48.354;9.248;2022-08-01T09:18:28;24.70;99.00
16136;DHT22;8173;48.354;9.248;2022-08-01T09:21:12;24.80;99.90
16136;DHT22;8173;48.354;9.248;2022-08-01T09:23:44;25.50;99.90
16136;DHT22;8173;48.354;9.248;2022-08-01T09:26:12;25.70;98.40
16136;DHT22;8173;48.354;9.248;2022-08-01T09:28:40;25.40;99.00
16136;DHT22;8173;48.354;9.248;2022-08-01T09:31:10;25.70;99.90
16136;DHT22;8173;48.354;9.248;2022-08-01T09:33:53;25.80;98.70
16136;DHT22;8173;48.354;9.248;2022-08-01T09:36:21;25.50;99.80
16136;DHT22;8173;48.354;9.248;2022-08-01T09:38:50;26.20;99.90
16136;DHT22;8173;48.354;9.248;2022-08-01T09:41:28;26.80;97.40
16136;DHT22;8173;48.354;9.248;2022-08-01T09:43:55;26.90;96.70
16136;DHT22;8173;48.354;9.248;2022-08-01T09:46:22;27.00;96.60
16136;DHT22;8173;48.354;9.248;2022-08-01T09:48:57;27.60;94.70
16136;DHT22;8173;48.354;9.248;2022-08-01T09:51:29;27.90;93.90
16136;DHT22;8173;48.354;9.248;2022-08-01T09:53:57;27.80;93.30
16136;DHT22;8173;48.354;9.248;2022-08-01T09:56:25;27.60;94.00
16136;DHT22;8173;48.354;9.248;2022-08-01T09:58:56;27.70;94.20
16136;DHT22;8173;48.354;9.248;2022-08-01T10:01:24;27.80;94.30
16136;DHT22;8173;48.354;9.248;2022-08-01T10:04:08;27.40;93.60
16136;DHT22;8173;48.354;9.248;2022-08-01T10:06:35;26.60;94.20
16136;DHT22;8173;48.354;9.248;2022-08-01T10:09:04;26.50;95.30
16136;DHT22;8173;48.354;9.248;2022-08-01T10:11:32;27.30;95.60
16136;DHT22;8173;48.354;9.248;2022-08-01T10:13:59;28.40;94.10
16136;DHT22;8173;48.354;9.248;2022-08-01T10:16:28;28.60;91.50
16136;DHT22;8173;48.354;9.248;2022-08-01T10:18:57;28.70;92.80
16136;DHT22;8173;48.354;9.248;2022-08-01T10:21:27;29.30;91.30
16136;DHT22;8173;48.354;9.248;2022-08-01T10:23:54;29.10;88.90
16136;DHT22;8173;48.354;9.248;2022-08-01T10:26:25;28.10;87.00
16136;DHT22;8173;48.354;9.248;2022-08-01T10:28:53;27.30;89.30
16136;DHT22;8173;48.354;9.248;2022-08-01T10:31:20;26.40;91.20
16136;DHT22;8173;48.354;9.248;2022-08-01T10:33:48;25.70;92.30
16136;DHT22;8173;48.354;9.248;2022-08-01T10:36:18;25.30;93.90
16136;DHT22;8173;48.354;9.248;2022-08-01T10:38:46;24.90;95.10
16136;DHT22;8173;48.354;9.248;2022-08-01T10:41:13;24.70;96.60
16136;DHT22;8173;48.354;9.248;2022-08-01T10:43:43;24.80;97.70
16136;DHT22;8173;48.354;9.248;2022-08-01T10:46:10;25.00;96.40
16136;DHT22;8173;48.354;9.248;2022-08-01T10:48:43;24.90;96.10
16136;DHT22;8173;48.354;9.248;2022-08-01T10:51:12;24.70;96.90
16136;DHT22;8173;48.354;9.248;2022-08-01T10:53:46;24.40;97.60
16136;DHT22;8173;48.354;9.248;2022-08-01T10:56:14;24.20;99.20
16136;DHT22;8173;48.354;9.248;2022-08-01T10:58:45;24.40;99.30
16136;DHT22;8173;48.354;9.248;2022-08-01T11:01:23;24.60;99.40
16136;DHT22;8173;48.354;9.248;2022-08-01T11:04:02;25.70;98.60
16136;DHT22;8173;48.354;9.248;2022-08-01T11:06:39;27.00;96.60
16136;DHT22;8173;48.354;9.248;2022-08-01T11:09:29;27.80;95.00
16136;DHT22;8173;48.354;9.248;2022-08-01T11:11:58;29.10;91.50
16136;DHT22;8173;48.354;9.248;2022-08-01T11:14:27;30.60;85.80
16136;DHT22;8173;48.354;9.248;2022-08-01T11:16:55;30.50;86.50
16136;DHT22;8173;48.354;9.248;2022-08-01T11:19:22;29.80;84.30
16136;DHT22;8173;48.354;9.248;2022-08-01T11:21:59;29.00;88.30
16136;DHT22;8173;48.354;9.248;2022-08-01T11:27:32;28.30;90.90
16136;DHT22;8173;48.354;9.248;2022-08-01T11:30:25;27.60;91.10
16136;DHT22;8173;48.354;9.248;2022-08-01T11:32:53;25.80;93.80
16136;DHT22;8173;48.354;9.248;2022-08-01T11:35:22;25.00;96.70
16136;DHT22;8173;48.354;9.248;2022-08-01T11:37:51;24.30;98.60
16136;DHT22;8173;48.354;9.248;2022-08-01T11:40:19;24.00;99.90
16136;DHT22;8173;48.354;9.248;2022-08-01T11:42:46;23.80;99.90
16136;DHT22;8173;48.354;9.248;2022-08-01T11:45:13;23.40;99.90
16136;DHT22;8173;48.354;9.248;2022-08-01T11:47:46;23.30;99.90
16136;DHT22;8173;48.354;9.248;2022-08-01T11:50:33;23.10;99.90
16136;DHT22;8173;48.354;9.248;2022-08-01T11:53:01;23.00;99.90
16136;DHT22;8173;48.354;9.248;2022-08-01T11:55:29;22.70;99.90
16136;DHT22;8173;48.354;9.248;2022-08-01T11:58:00;22.60;99.90
16136;DHT22;8173;48.354;9.248;2022-08-01T12:00:28;22.60;99.90
16136;DHT22;8173;48.354;9.248;2022-08-01T12:02:59;22.60;99.90
16136;DHT22;8173;48.354;9.248;2022-08-01T12:05:27;22.60;99.90
16136;DHT22;8173;48.354;9.248;2022-08-01T12:07:55;22.60;99.90
16136;DHT22;8173;48.354;9.248;2022-08-01T12:10:24;22.90;99.90
16136;DHT22;8173;48.354;9.248;2022-08-01T12:12:52;23.90;99.90
16136;DHT22;8173;48.354;9.248;2022-08-01T12:15:20;24.20;99.90
16136;DHT22;8173;48.354;9.248;2022-08-01T12:17:50;24.40;99.90
16136;DHT22;8173;48.354;9.248;2022-08-01T12:20:21;25.20;99.90
16136;DHT22;8173;48.354;9.248;2022-08-01T12:22:53;25.20;99.90
16136;DHT22;8173;48.354;9.248;2022-08-01T12:25:19;25.40;99.90
16136;DHT22;8173;48.354;9.248;2022-08-01T12:27:47;25.60;99.90
16136;DHT22;8173;48.354;9.248;2022-08-01T12:30:15;25.90;99.90
16136;DHT22;8173;48.354;9.248;2022-08-01T12:32:44;26.00;99.90
16136;DHT22;8173;48.354;9.248;2022-08-01T12:35:12;28.20;99.90
16136;DHT22;8173;48.354;9.248;2022-08-01T12:37:43;28.60;99.00
16136;DHT22;8173;48.354;9.248;2022-08-01T12:40:19;29.40;94.80
16136;DHT22;8173;48.354;9.248;2022-08-01T12:42:48;29.00;94.90
16136;DHT22;8173;48.354;9.248;2022-08-01T12:45:17;29.30;96.00
16136;DHT22;8173;48.354;9.248;2022-08-01T12:47:45;29.80;94.00
16136;DHT22;8173;48.354;9.248;2022-08-01T12:50:15;29.80;91.90
16136;DHT22;8173;48.354;9.248;2022-08-01T12:52:44;30.20;93.30
16136;DHT22;8173;48.354;9.248;2022-08-01T12:55:13;29.00;92.00
16136;DHT22;8173;48.354;9.248;2022-08-01T12:57:42;28.70;92.80
16136;DHT22;8173;48.354;9.248;2022-08-01T13:00:14;27.80;94.30
16136;DHT22;8173;48.354;9.248;2022-08-01T13:02:43;27.90;94.10
16136;DHT22;8173;48.354;9.248;2022-08-01T13:05:10;27.10;94.40
16136;DHT22;8173;48.354;9.248;2022-08-01T13:07:40;26.90;95.00
16136;DHT22;8173;48.354;9.248;2022-08-01T13:10:09;26.70;96.00
16136;DHT22;8173;48.354;9.248;2022-08-01T13:12:37;27.30;94.10
16136;DHT22;8173;48.354;9.248;2022-08-01T13:15:21;27.90;94.10
16136;DHT22;8173;48.354;9.248;2022-08-01T13:17:49;28.20;94.50
16136;DHT22;8173;48.354;9.248;2022-08-01T13:20:23;28.40;93.30
16136;DHT22;8173;48.354;9.248;2022-08-01T13:22:50;28.50;91.60
16136;DHT22;8173;48.354;9.248;2022-08-01T13:25:19;28.60;91.10
16136;DHT22;8173;48.354;9.248;2022-08-01T13:27:45;28.70;91.80
16136;DHT22;8173;48.354;9.248;2022-08-01T13:30:14;28.30;91.10
16136;DHT22;8173;48.354;9.248;2022-08-01T13:32:41;27.70;90.90
16136;DHT22;8173;48.354;9.248;2022-08-01T13:35:11;27.60;91.00
16136;DHT22;8173;48.354;9.248;2022-08-01T13:37:39;27.70;90.90
16136;DHT22;8173;48.354;9.248;2022-08-01T13:40:08;27.90;91.40
16136;DHT22;8173;48.354;9.248;2022-08-01T13:42:37;28.30;91.10
16136;DHT22;8173;48.354;9.248;2022-08-01T13:45:05;28.00;91.20
16136;DHT22;8173;48.354;9.248;2022-08-01T13:47:36;28.10;91.70
16136;DHT22;8173;48.354;9.248;2022-08-01T13:50:03;28.10;90.60
16136;DHT22;8173;48.354;9.248;2022-08-01T13:52:30;28.30;90.90
16136;DHT22;8173;48.354;9.248;2022-08-01T13:54:57;28.00;89.20
16136;DHT22;8173;48.354;9.248;2022-08-01T13:57:24;28.00;90.20
16136;DHT22;8173;48.354;9.248;2022-08-01T13:59:52;27.90;89.80
16136;DHT22;8173;48.354;9.248;2022-08-01T14:02:19;28.00;90.60
16136;DHT22;8173;48.354;9.248;2022-08-01T14:04:46;28.90;90.00
16136;DHT22;8173;48.354;9.248;2022-08-01T14:07:13;29.00;90.80
16136;DHT22;8173;48.354;9.248;2022-08-01T14:09:40;29.20;88.80
16136;DHT22;8173;48.354;9.248;2022-08-01T14:12:07;28.40;88.80
16136;DHT22;8173;48.354;9.248;2022-08-01T14:14:35;27.30;90.30
16136;DHT22;8173;48.354;9.248;2022-08-01T14:17:03;27.20;90.90
16136;DHT22;8173;48.354;9.248;2022-08-01T14:19:30;27.20;89.80
16136;DHT22;8173;48.354;9.248;2022-08-01T14:21:57;27.80;90.50
16136;DHT22;8173;48.354;9.248;2022-08-01T14:24:23;27.90;88.70
16136;DHT22;8173;48.354;9.248;2022-08-01T14:26:51;27.90;89.40
16136;DHT22;8173;48.354;9.248;2022-08-01T14:29:18;28.40;87.80
16136;DHT22;8173;48.354;9.248;2022-08-01T14:31:45;28.60;86.40
16136;DHT22;8173;48.354;9.248;2022-08-01T14:34:13;28.10;85.90
16136;DHT22;8173;48.354;9.248;2022-08-01T14:36:41;26.80;87.70
16136;DHT22;8173;48.354;9.248;2022-08-01T14:39:08;25.90;89.50
16136;DHT22;8173;48.354;9.248;2022-08-01T14:41:34;25.40;90.70
16136;DHT22;8173;48.354;9.248;2022-08-01T14:44:02;25.20;91.20
16136;DHT22;8173;48.354;9.248;2022-08-01T14:46:29;25.60;91.90
16136;DHT22;8173;48.354;9.248;2022-08-01T14:48:56;26.90;91.40
16136;DHT22;8173;48.354;9.248;2022-08-01T14:51:24;28.00;90.70
16136;DHT22;8173;48.354;9.248;2022-08-01T14:53:51;28.60;90.00
16136;DHT22;8173;48.354;9.248;2022-08-01T14:56:18;29.00;86.80
16136;DHT22;8173;48.354;9.248;2022-08-01T14:58:45;29.10;84.50
16136;DHT22;8173;48.354;9.248;2022-08-01T15:01:12;29.20;85.60
16136;DHT22;8173;48.354;9.248;2022-08-01T15:03:38;29.40;86.10
16136;DHT22;8173;48.354;9.248;2022-08-01T15:06:06;28.30;84.60
16136;DHT22;8173;48.354;9.248;2022-08-01T15:08:36;28.00;87.50
16136;DHT22;8173;48.354;9.248;2022-08-01T15:11:03;27.70;86.60
16136;DHT22;8173;48.354;9.248;2022-08-01T15:13:29;27.70;86.50
16136;DHT22;8173;48.354;9.248;2022-08-01T15:15:57;27.30;87.70
16136;DHT22;8173;48.354;9.248;2022-08-01T15:18:24;27.00;88.50
16136;DHT22;8173;48.354;9.248;2022-08-01T15:20:50;26.30;87.70
16136;DHT22;8173;48.354;9.248;2022-08-01T15:23:17;26.20;90.10
16136;DHT22;8173;48.354;9.248;2022-08-01T15:25:45;26.00;91.00
16136;DHT22;8173;48.354;9.248;2022-08-01T15:28:12;25.80;91.90
16136;DHT22;8173;48.354;9.248;2022-08-01T15:30:40;25.30;92.10
16136;DHT22;8173;48.354;9.248;2022-08-01T15:33:07;25.30;94.00
16136;DHT22;8173;48.354;9.248;2022-08-01T15:35:34;26.30;94.80
16136;DHT22;8173;48.354;9.248;2022-08-01T15:38:00;26.50;94.70
16136;DHT22;8173;48.354;9.248;2022-08-01T15:40:27;26.50;95.30
16136;DHT22;8173;48.354;9.248;2022-08-01T15:42:56;26.60;94.50
16136;DHT22;8173;48.354;9.248;2022-08-01T15:45:24;26.20;96.00
16136;DHT22;8173;48.354;9.248;2022-08-01T15:47:51;26.20;95.60
16136;DHT22;8173;48.354;9.248;2022-08-01T15:50:18;25.80;96.40
16136;DHT22;8173;48.354;9.248;2022-08-01T15:52:45;25.20;97.30
16136;DHT22;8173;48.354;9.248;2022-08-01T15:55:12;24.70;98.60
16136;DHT22;8173;48.354;9.248;2022-08-01T15:57:38;24.50;99.90
16136;DHT22;8173;48.354;9.248;2022-08-01T16:00:08;24.40;99.90